CSN2627 ZGSD-ZSHC
Flight info
| Callsign | CSN2627 |
|---|---|
| Flight time | 1h 34m |
| Altitude | 35100 |
| Route | ZAO DCT GUBLO W22 SHL G471 EGEDA/K0856S1160 G471 PLT/K0841S1130 A599 ELNEX ELNEX13 |
| Aircraft | B738/M-SDE2E3FGHIRWXY/LB1 |
Departure
| Time | 2026-04-24 09:23 |
|---|---|
| Airport | Zhuhai Jinwan Airport (ZGSD) |
Arrival
| Time | 2026-04-24 10:57 |
|---|---|
| Airport | Hangzhou Xiaoshan International Airport (ZSHC) |
| Time | Latitude | Longitude | Altitude | Speed | Heading |
|---|---|---|---|---|---|
| 2026-04-24 08:55 | 22.00939 | 113.37302 | 35 ft | 0 kts | 223° |
| 2026-04-24 08:59 | 22.00944 | 113.37306 | 35 ft | 2 kts | 223° |
| 2026-04-24 08:59 | 22.00955 | 113.37317 | 35 ft | 2 kts | 223° |
| 2026-04-24 08:59 | 22.00962 | 113.37324 | 35 ft | 1 kts | 223° |
| 2026-04-24 09:00 | 22.00975 | 113.37332 | 35 ft | 2 kts | 185° |
| 2026-04-24 09:00 | 22.00989 | 113.37330 | 35 ft | 2 kts | 151° |
| 2026-04-24 09:00 | 22.00996 | 113.37325 | 34 ft | 1 kts | 130° |
| 2026-04-24 09:00 | 22.00999 | 113.37321 | 34 ft | 0 kts | 133° |
| 2026-04-24 09:02 | 22.00981 | 113.37341 | 35 ft | 9 kts | 135° |
| 2026-04-24 09:02 | 22.00968 | 113.37355 | 34 ft | 9 kts | 134° |
| 2026-04-24 09:03 | 22.00950 | 113.37374 | 34 ft | 6 kts | 134° |
| 2026-04-24 09:03 | 22.00912 | 113.37417 | 34 ft | 8 kts | 134° |
| 2026-04-24 09:03 | 22.00864 | 113.37470 | 34 ft | 10 kts | 134° |
| 2026-04-24 09:03 | 22.00805 | 113.37531 | 34 ft | 13 kts | 144° |
| 2026-04-24 09:04 | 22.00726 | 113.37554 | 33 ft | 5 kts | 193° |
| 2026-04-24 09:04 | 22.00717 | 113.37534 | 34 ft | 12 kts | 251° |
| 2026-04-24 09:04 | 22.00709 | 113.37470 | 35 ft | 6 kts | 253° |
| 2026-04-24 09:04 | 22.00686 | 113.37434 | 35 ft | 0 kts | 225° |
| 2026-04-24 09:05 | 22.00678 | 113.37425 | 36 ft | 3 kts | 225° |
| 2026-04-24 09:05 | 22.00653 | 113.37397 | 36 ft | 6 kts | 225° |
| 2026-04-24 09:05 | 22.00615 | 113.37357 | 36 ft | 9 kts | 225° |
| 2026-04-24 09:06 | 22.00560 | 113.37299 | 35 ft | 13 kts | 223° |
| 2026-04-24 09:06 | 22.00483 | 113.37220 | 34 ft | 17 kts | 224° |
| 2026-04-24 09:06 | 22.00390 | 113.37122 | 34 ft | 19 kts | 225° |
| 2026-04-24 09:06 | 22.00311 | 113.37037 | 33 ft | 14 kts | 224° |
| 2026-04-24 09:07 | 22.00241 | 113.36962 | 34 ft | 13 kts | 225° |
| 2026-04-24 09:07 | 22.00176 | 113.36891 | 35 ft | 13 kts | 225° |
| 2026-04-24 09:07 | 22.00002 | 113.36708 | 21 ft | 23 kts | 224° |
| 2026-04-24 09:08 | 21.99883 | 113.36581 | 20 ft | 24 kts | 225° |
| 2026-04-24 09:08 | 21.99777 | 113.36468 | 20 ft | 18 kts | 224° |
| 2026-04-24 09:08 | 21.99682 | 113.36368 | 18 ft | 20 kts | 225° |
| 2026-04-24 09:08 | 21.99586 | 113.36296 | 18 ft | 14 kts | 169° |
| 2026-04-24 09:09 | 21.99526 | 113.36352 | 18 ft | 0 kts | 132° |
| 2026-04-24 09:09 | 21.99562 | 113.36314 | 18 ft | 0 kts | 132° |
| 2026-04-24 09:09 | 21.99560 | 113.36317 | 18 ft | 0 kts | 135° |
| 2026-04-24 09:20 | 21.99553 | 113.36324 | 18 ft | 5 kts | 135° |
| 2026-04-24 09:20 | 21.99498 | 113.36395 | 18 ft | 12 kts | 102° |
| 2026-04-24 09:20 | 21.99529 | 113.36456 | 18 ft | 15 kts | 44° |
| 2026-04-24 09:20 | 21.99534 | 113.36461 | 18 ft | 0 kts | 45° |
| 2026-04-24 09:22 | 21.99563 | 113.36494 | 18 ft | 29 kts | 46° |
| 2026-04-24 09:22 | 21.99893 | 113.36842 | 18 ft | 102 kts | 44° |
| 2026-04-24 09:22 | 22.00540 | 113.37540 | 129 ft | 150 kts | 44° |
| 2026-04-24 09:23 | 22.01350 | 113.38467 | 780 ft | 195 kts | 42° |
| 2026-04-24 09:23 | 22.02434 | 113.39468 | 1463 ft | 209 kts | 38° |
| 2026-04-24 09:23 | 22.03573 | 113.40527 | 2127 ft | 218 kts | 41° |
| 2026-04-24 09:23 | 22.04676 | 113.41636 | 2795 ft | 226 kts | 41° |
| 2026-04-24 09:24 | 22.05902 | 113.42806 | 3454 ft | 246 kts | 42° |
| 2026-04-24 09:24 | 22.07196 | 113.44067 | 4126 ft | 254 kts | 41° |
| 2026-04-24 09:24 | 22.08505 | 113.45360 | 4795 ft | 259 kts | 41° |
| 2026-04-24 09:24 | 22.09863 | 113.46696 | 5462 ft | 270 kts | 41° |
| 2026-04-24 09:25 | 22.11276 | 113.48083 | 6138 ft | 277 kts | 41° |
| 2026-04-24 09:25 | 22.12711 | 113.49499 | 6804 ft | 280 kts | 40° |
| 2026-04-24 09:25 | 22.14131 | 113.50899 | 7456 ft | 282 kts | 40° |
| 2026-04-24 09:25 | 22.15602 | 113.52351 | 8114 ft | 284 kts | 40° |
| 2026-04-24 09:26 | 22.17083 | 113.53817 | 8774 ft | 290 kts | 39° |
| 2026-04-24 09:26 | 22.18565 | 113.55281 | 9421 ft | 292 kts | 39° |
| 2026-04-24 09:26 | 22.20087 | 113.56782 | 10079 ft | 298 kts | 39° |
| 2026-04-24 09:26 | 22.21610 | 113.58283 | 10729 ft | 299 kts | 39° |
| 2026-04-24 09:27 | 22.23161 | 113.59811 | 11382 ft | 304 kts | 39° |
| 2026-04-24 09:27 | 22.24724 | 113.61349 | 12031 ft | 308 kts | 38° |
| 2026-04-24 09:27 | 22.26362 | 113.62892 | 12685 ft | 312 kts | 37° |
| 2026-04-24 09:27 | 22.28023 | 113.64408 | 13323 ft | 315 kts | 37° |
| 2026-04-24 09:28 | 22.29702 | 113.65941 | 13971 ft | 316 kts | 37° |
| 2026-04-24 09:28 | 22.31413 | 113.67467 | 14616 ft | 324 kts | 37° |
| 2026-04-24 09:28 | 22.33139 | 113.69012 | 15231 ft | 326 kts | 38° |
| 2026-04-24 09:28 | 22.34879 | 113.70586 | 15821 ft | 330 kts | 39° |
| 2026-04-24 09:29 | 22.36657 | 113.72257 | 16025 ft | 337 kts | 41° |
| 2026-04-24 09:29 | 22.38323 | 113.73988 | 16122 ft | 327 kts | 40° |
| 2026-04-24 09:29 | 22.40078 | 113.75602 | 16744 ft | 338 kts | 37° |
| 2026-04-24 09:29 | 22.40123 | 113.75642 | 16761 ft | 338 kts | 37° |
| 2026-04-24 09:30 | 22.41099 | 113.76490 | 17049 ft | 348 kts | 37° |
| 2026-04-24 09:30 | 22.43720 | 113.78723 | 17880 ft | 368 kts | 37° |
| 2026-04-24 09:30 | 22.45059 | 113.79874 | 18294 ft | 377 kts | 37° |
| 2026-04-24 09:30 | 22.47132 | 113.81696 | 18920 ft | 390 kts | 38° |
| 2026-04-24 09:31 | 22.49261 | 113.83605 | 19541 ft | 401 kts | 38° |
| 2026-04-24 09:31 | 22.51337 | 113.85487 | 20134 ft | 411 kts | 39° |
| 2026-04-24 09:32 | 22.52692 | 113.86722 | 20515 ft | 417 kts | 39° |
| 2026-04-24 09:32 | 22.54949 | 113.88781 | 21129 ft | 426 kts | 39° |
| 2026-04-24 09:32 | 22.57240 | 113.90875 | 21737 ft | 434 kts | 39° |
| 2026-04-24 09:33 | 22.59573 | 113.93007 | 22345 ft | 441 kts | 39° |
| 2026-04-24 09:33 | 22.61960 | 113.95151 | 22973 ft | 447 kts | 37° |
| 2026-04-24 09:33 | 22.64509 | 113.97141 | 23612 ft | 451 kts | 30° |
| 2026-04-24 09:33 | 22.67265 | 113.98721 | 24267 ft | 452 kts | 20° |
| 2026-04-24 09:34 | 22.70281 | 113.99818 | 24940 ft | 451 kts | 9° |
| 2026-04-24 09:34 | 22.73367 | 114.00356 | 25609 ft | 448 kts | 359° |
| 2026-04-24 09:34 | 22.76433 | 114.00341 | 26270 ft | 444 kts | 349° |
| 2026-04-24 09:34 | 22.79494 | 113.99770 | 26952 ft | 438 kts | 338° |
| 2026-04-24 09:35 | 22.82377 | 113.98759 | 27623 ft | 434 kts | 333° |
| 2026-04-24 09:35 | 22.85196 | 113.97546 | 28301 ft | 432 kts | 330° |
| 2026-04-24 09:35 | 22.87959 | 113.96267 | 28983 ft | 433 kts | 328° |
| 2026-04-24 09:35 | 22.90724 | 113.94949 | 29676 ft | 433 kts | 327° |
| 2026-04-24 09:36 | 22.93420 | 113.93572 | 30366 ft | 431 kts | 325° |
| 2026-04-24 09:36 | 22.96131 | 113.92109 | 31070 ft | 429 kts | 324° |
| 2026-04-24 09:36 | 22.98758 | 113.90657 | 31763 ft | 419 kts | 324° |
| 2026-04-24 09:36 | 23.01413 | 113.89397 | 32464 ft | 420 kts | 329° |
| 2026-04-24 09:37 | 23.04254 | 113.88442 | 33210 ft | 427 kts | 336° |
| 2026-04-24 09:37 | 23.07190 | 113.87854 | 33992 ft | 434 kts | 342° |
| 2026-04-24 09:37 | 23.10228 | 113.87635 | 34763 ft | 441 kts | 348° |
| 2026-04-24 09:37 | 23.13338 | 113.87784 | 35051 ft | 459 kts | 357° |
| 2026-04-24 09:38 | 23.16514 | 113.88770 | 35070 ft | 494 kts | 17° |
| 2026-04-24 09:38 | 23.19472 | 113.90884 | 35080 ft | 522 kts | 33° |
| 2026-04-24 09:38 | 23.22183 | 113.93599 | 35070 ft | 537 kts | 40° |
| 2026-04-24 09:38 | 23.24784 | 113.96485 | 35070 ft | 548 kts | 40° |
| 2026-04-24 09:39 | 23.30241 | 114.02414 | 35071 ft | 548 kts | 38° |
| 2026-04-24 09:39 | 23.35949 | 114.07920 | 35070 ft | 546 kts | 34° |
| 2026-04-24 09:40 | 23.41833 | 114.13121 | 35066 ft | 545 kts | 32° |
| 2026-04-24 09:40 | 23.47808 | 114.18217 | 35067 ft | 542 kts | 31° |
| 2026-04-24 09:41 | 23.53826 | 114.23305 | 35068 ft | 546 kts | 32° |
| 2026-04-24 09:41 | 23.59805 | 114.28387 | 35066 ft | 546 kts | 32° |
| 2026-04-24 09:42 | 23.65811 | 114.33530 | 35061 ft | 544 kts | 32° |
| 2026-04-24 09:42 | 23.71717 | 114.38541 | 35058 ft | 534 kts | 31° |
| 2026-04-24 09:43 | 23.77656 | 114.43401 | 35063 ft | 517 kts | 30° |
| 2026-04-24 09:43 | 23.78546 | 114.44122 | 35064 ft | 513 kts | 30° |
| 2026-04-24 09:44 | 23.84285 | 114.48749 | 35065 ft | 520 kts | 31° |
| 2026-04-24 09:44 | 23.90106 | 114.53455 | 35073 ft | 517 kts | 31° |
| 2026-04-24 09:45 | 23.95930 | 114.58211 | 35067 ft | 520 kts | 31° |
| 2026-04-24 09:45 | 24.01692 | 114.62950 | 35070 ft | 520 kts | 31° |
| 2026-04-24 09:46 | 24.07476 | 114.67719 | 35069 ft | 520 kts | 31° |
| 2026-04-24 09:46 | 24.13270 | 114.72512 | 35069 ft | 521 kts | 31° |
| 2026-04-24 09:47 | 24.19068 | 114.77309 | 35069 ft | 522 kts | 32° |
| 2026-04-24 09:47 | 24.24979 | 114.82017 | 35081 ft | 519 kts | 27° |
| 2026-04-24 09:48 | 24.31332 | 114.85505 | 35083 ft | 502 kts | 11° |
| 2026-04-24 09:48 | 24.38029 | 114.87618 | 35092 ft | 496 kts | 5° |
| 2026-04-24 09:49 | 24.44725 | 114.89282 | 35093 ft | 493 kts | 2° |
| 2026-04-24 09:49 | 24.51532 | 114.90872 | 35108 ft | 496 kts | 2° |
| 2026-04-24 09:50 | 24.58305 | 114.92486 | 35102 ft | 496 kts | 3° |
| 2026-04-24 09:50 | 24.65084 | 114.94129 | 35105 ft | 498 kts | 3° |
| 2026-04-24 09:51 | 24.71830 | 114.95785 | 35104 ft | 499 kts | 3° |
| 2026-04-24 09:51 | 24.78649 | 114.97467 | 35108 ft | 500 kts | 2° |
| 2026-04-24 09:52 | 24.85470 | 114.99139 | 35115 ft | 503 kts | 3° |
| 2026-04-24 09:52 | 24.92333 | 115.00804 | 35114 ft | 500 kts | 2° |
| 2026-04-24 09:53 | 24.99154 | 115.02467 | 35116 ft | 506 kts | 3° |
| 2026-04-24 09:53 | 25.06032 | 115.04145 | 35120 ft | 500 kts | 2° |
| 2026-04-24 09:54 | 25.12855 | 115.05811 | 35119 ft | 506 kts | 2° |
| 2026-04-24 09:54 | 25.19753 | 115.07500 | 35119 ft | 504 kts | 2° |
| 2026-04-24 09:55 | 25.26698 | 115.09191 | 35120 ft | 507 kts | 2° |
| 2026-04-24 09:55 | 25.33518 | 115.10116 | 35123 ft | 478 kts | 346° |
| 2026-04-24 09:56 | 25.36822 | 115.09627 | 35123 ft | 462 kts | 333° |
| 2026-04-24 09:56 | 25.39860 | 115.08564 | 35124 ft | 453 kts | 326° |
| 2026-04-24 09:56 | 25.45567 | 115.05868 | 35121 ft | 444 kts | 322° |
| 2026-04-24 09:57 | 25.51159 | 115.02986 | 35122 ft | 432 kts | 321° |
| 2026-04-24 09:57 | 25.56684 | 115.00082 | 35123 ft | 444 kts | 321° |
| 2026-04-24 09:58 | 25.62234 | 114.97193 | 35127 ft | 436 kts | 321° |
| 2026-04-24 09:58 | 25.65019 | 114.95741 | 35131 ft | 447 kts | 321° |
| 2026-04-24 09:58 | 25.67851 | 114.94285 | 35131 ft | 441 kts | 322° |
| 2026-04-24 09:59 | 25.73773 | 114.92053 | 35136 ft | 469 kts | 338° |
| 2026-04-24 09:59 | 25.77171 | 114.91923 | 35137 ft | 493 kts | 352° |
| 2026-04-24 09:59 | 25.80632 | 114.92598 | 35138 ft | 521 kts | 5° |
| 2026-04-24 10:00 | 25.87427 | 114.95891 | 35133 ft | 542 kts | 24° |
| 2026-04-24 10:00 | 25.90481 | 114.98451 | 35135 ft | 550 kts | 37° |
| 2026-04-24 10:00 | 25.93292 | 115.01444 | 35137 ft | 557 kts | 42° |
| 2026-04-24 10:01 | 25.98584 | 115.07851 | 35135 ft | 561 kts | 45° |
| 2026-04-24 10:01 | 26.03751 | 115.14359 | 35143 ft | 560 kts | 44° |
| 2026-04-24 10:02 | 26.08998 | 115.20859 | 35133 ft | 558 kts | 45° |
| 2026-04-24 10:02 | 26.14233 | 115.27209 | 35126 ft | 560 kts | 44° |
| 2026-04-24 10:03 | 26.19547 | 115.33570 | 35137 ft | 557 kts | 43° |
| 2026-04-24 10:03 | 26.24862 | 115.39919 | 35145 ft | 561 kts | 43° |
| 2026-04-24 10:04 | 26.30209 | 115.46307 | 35145 ft | 557 kts | 43° |
| 2026-04-24 10:04 | 26.35531 | 115.52685 | 35146 ft | 560 kts | 44° |
| 2026-04-24 10:05 | 26.40811 | 115.59029 | 35135 ft | 558 kts | 43° |
| 2026-04-24 10:05 | 26.46147 | 115.65442 | 35134 ft | 558 kts | 44° |
| 2026-04-24 10:06 | 26.54081 | 115.75009 | 35131 ft | 559 kts | 44° |
| 2026-04-24 10:07 | 26.59377 | 115.81404 | 35138 ft | 559 kts | 43° |
| 2026-04-24 10:07 | 26.64663 | 115.87798 | 35139 ft | 560 kts | 43° |
| 2026-04-24 10:08 | 26.69987 | 115.94248 | 35135 ft | 559 kts | 43° |
| 2026-04-24 10:08 | 26.75265 | 116.00655 | 35128 ft | 559 kts | 44° |
| 2026-04-24 10:09 | 26.80570 | 116.07095 | 35134 ft | 559 kts | 43° |
| 2026-04-24 10:09 | 26.85855 | 116.13523 | 35134 ft | 558 kts | 43° |
| 2026-04-24 10:10 | 26.91119 | 116.19926 | 35144 ft | 559 kts | 43° |
| 2026-04-24 10:10 | 26.96422 | 116.26362 | 35131 ft | 560 kts | 43° |
| 2026-04-24 10:11 | 27.01731 | 116.32762 | 35141 ft | 561 kts | 43° |
| 2026-04-24 10:11 | 27.07063 | 116.39188 | 35142 ft | 562 kts | 43° |
| 2026-04-24 10:12 | 27.12385 | 116.45614 | 35135 ft | 559 kts | 43° |
| 2026-04-24 10:12 | 27.17659 | 116.52002 | 35129 ft | 559 kts | 43° |
| 2026-04-24 10:13 | 27.22970 | 116.58418 | 35127 ft | 557 kts | 42° |
| 2026-04-24 10:13 | 27.28374 | 116.64748 | 35137 ft | 558 kts | 41° |
| 2026-04-24 10:14 | 27.33762 | 116.70979 | 35137 ft | 554 kts | 42° |
| 2026-04-24 10:14 | 27.39140 | 116.77208 | 35133 ft | 557 kts | 42° |
| 2026-04-24 10:15 | 27.44537 | 116.83490 | 35137 ft | 554 kts | 42° |
| 2026-04-24 10:15 | 27.49902 | 116.89761 | 35140 ft | 554 kts | 43° |
| 2026-04-24 10:16 | 27.55274 | 116.96041 | 35147 ft | 552 kts | 41° |
| 2026-04-24 10:16 | 27.60659 | 117.02274 | 35145 ft | 554 kts | 41° |
| 2026-04-24 10:17 | 27.66022 | 117.08467 | 35148 ft | 549 kts | 41° |
| 2026-04-24 10:17 | 27.71371 | 117.14654 | 35150 ft | 551 kts | 42° |
| 2026-04-24 10:18 | 27.76749 | 117.20892 | 35152 ft | 551 kts | 42° |
| 2026-04-24 10:18 | 27.82054 | 117.27056 | 35151 ft | 548 kts | 41° |
| 2026-04-24 10:19 | 27.87426 | 117.33308 | 35158 ft | 549 kts | 41° |
| 2026-04-24 10:19 | 27.92755 | 117.39527 | 35149 ft | 553 kts | 41° |
| 2026-04-24 10:20 | 27.98147 | 117.45818 | 35152 ft | 549 kts | 41° |
| 2026-04-24 10:20 | 28.01592 | 117.49848 | 35148 ft | 545 kts | 42° |
| 2026-04-24 10:21 | 28.06804 | 117.55966 | 35147 ft | 544 kts | 42° |
| 2026-04-24 10:21 | 28.11988 | 117.62193 | 35311 ft | 548 kts | 43° |
| 2026-04-24 10:21 | 28.14579 | 117.65301 | 35171 ft | 546 kts | 43° |
| 2026-04-24 10:22 | 28.17246 | 117.68431 | 35160 ft | 548 kts | 41° |
| 2026-04-24 10:22 | 28.22602 | 117.74625 | 35039 ft | 551 kts | 41° |
| 2026-04-24 10:22 | 28.25274 | 117.77715 | 34852 ft | 548 kts | 43° |
| 2026-04-24 10:23 | 28.27922 | 117.80798 | 34669 ft | 549 kts | 42° |
| 2026-04-24 10:23 | 28.30582 | 117.83913 | 34492 ft | 549 kts | 43° |
| 2026-04-24 10:23 | 28.33222 | 117.87018 | 34297 ft | 551 kts | 43° |
| 2026-04-24 10:23 | 28.35875 | 117.90149 | 34111 ft | 548 kts | 43° |
| 2026-04-24 10:24 | 28.38530 | 117.93288 | 33918 ft | 549 kts | 42° |
| 2026-04-24 10:24 | 28.41193 | 117.96440 | 33743 ft | 549 kts | 42° |
| 2026-04-24 10:24 | 28.43848 | 117.99603 | 33548 ft | 550 kts | 44° |
| 2026-04-24 10:24 | 28.46462 | 118.02775 | 33360 ft | 549 kts | 44° |
| 2026-04-24 10:25 | 28.49062 | 118.05970 | 33202 ft | 549 kts | 44° |
| 2026-04-24 10:25 | 28.54251 | 118.12411 | 33145 ft | 550 kts | 44° |
| 2026-04-24 10:26 | 28.59518 | 118.18945 | 33155 ft | 566 kts | 44° |
| 2026-04-24 10:26 | 28.64863 | 118.25569 | 33162 ft | 568 kts | 44° |
| 2026-04-24 10:27 | 28.70225 | 118.32214 | 33150 ft | 568 kts | 43° |
| 2026-04-24 10:27 | 28.75559 | 118.38821 | 33149 ft | 569 kts | 43° |
| 2026-04-24 10:28 | 28.80918 | 118.45467 | 33145 ft | 566 kts | 44° |
| 2026-04-24 10:28 | 28.86285 | 118.52132 | 32956 ft | 568 kts | 44° |
| 2026-04-24 10:28 | 28.88943 | 118.55441 | 32739 ft | 565 kts | 43° |
| 2026-04-24 10:29 | 28.91618 | 118.58773 | 32540 ft | 564 kts | 43° |
| 2026-04-24 10:29 | 28.94263 | 118.62071 | 32334 ft | 562 kts | 44° |
| 2026-04-24 10:29 | 28.96911 | 118.65372 | 32129 ft | 564 kts | 44° |
| 2026-04-24 10:29 | 28.99411 | 118.68494 | 31943 ft | 563 kts | 44° |
| 2026-04-24 10:30 | 29.02087 | 118.71838 | 31727 ft | 563 kts | 44° |
| 2026-04-24 10:30 | 29.04704 | 118.75115 | 31483 ft | 553 kts | 44° |
| 2026-04-24 10:30 | 29.07202 | 118.78252 | 31241 ft | 539 kts | 44° |
| 2026-04-24 10:30 | 29.09752 | 118.81454 | 30980 ft | 538 kts | 43° |
| 2026-04-24 10:31 | 29.12217 | 118.84546 | 30719 ft | 538 kts | 43° |
| 2026-04-24 10:31 | 29.14729 | 118.87696 | 30465 ft | 540 kts | 44° |
| 2026-04-24 10:31 | 29.17295 | 118.90911 | 30204 ft | 542 kts | 44° |
| 2026-04-24 10:31 | 29.19825 | 118.94087 | 29950 ft | 538 kts | 43° |
| 2026-04-24 10:32 | 29.22362 | 118.97275 | 29702 ft | 539 kts | 43° |
| 2026-04-24 10:32 | 29.24891 | 119.00457 | 29343 ft | 537 kts | 43° |
| 2026-04-24 10:32 | 29.27382 | 119.03599 | 28568 ft | 533 kts | 43° |
| 2026-04-24 10:32 | 29.29861 | 119.06728 | 27742 ft | 529 kts | 43° |
| 2026-04-24 10:33 | 29.32315 | 119.09829 | 26957 ft | 524 kts | 44° |
| 2026-04-24 10:33 | 29.34748 | 119.12908 | 26165 ft | 518 kts | 44° |
| 2026-04-24 10:33 | 29.37132 | 119.15929 | 25400 ft | 511 kts | 43° |
| 2026-04-24 10:33 | 29.39506 | 119.18941 | 24637 ft | 504 kts | 43° |
| 2026-04-24 10:34 | 29.41846 | 119.21916 | 23878 ft | 497 kts | 44° |
| 2026-04-24 10:34 | 29.44121 | 119.24809 | 23125 ft | 491 kts | 44° |
| 2026-04-24 10:34 | 29.46409 | 119.27723 | 22367 ft | 483 kts | 43° |
| 2026-04-24 10:34 | 29.48615 | 119.30531 | 21644 ft | 476 kts | 44° |
| 2026-04-24 10:35 | 29.50808 | 119.33323 | 20905 ft | 469 kts | 43° |
| 2026-04-24 10:35 | 29.52976 | 119.36084 | 20186 ft | 462 kts | 44° |
| 2026-04-24 10:35 | 29.55125 | 119.38825 | 19460 ft | 455 kts | 43° |
| 2026-04-24 10:35 | 29.55309 | 119.39059 | 19067 ft | 454 kts | 44° |
| 2026-04-24 10:36 | 29.56040 | 119.39992 | 18853 ft | 451 kts | 48° |
| 2026-04-24 10:36 | 29.56922 | 119.41132 | 18911 ft | 446 kts | 43° |
| 2026-04-24 10:36 | 29.58964 | 119.43748 | 18192 ft | 440 kts | 43° |
| 2026-04-24 10:36 | 29.61008 | 119.46348 | 17472 ft | 433 kts | 43° |
| 2026-04-24 10:37 | 29.63012 | 119.48890 | 16776 ft | 426 kts | 43° |
| 2026-04-24 10:37 | 29.64981 | 119.51398 | 16100 ft | 419 kts | 44° |
| 2026-04-24 10:37 | 29.66928 | 119.53892 | 15437 ft | 411 kts | 44° |
| 2026-04-24 10:37 | 29.68787 | 119.56284 | 14799 ft | 403 kts | 45° |
| 2026-04-24 10:38 | 29.70659 | 119.58699 | 14135 ft | 395 kts | 45° |
| 2026-04-24 10:38 | 29.72467 | 119.61033 | 13486 ft | 388 kts | 46° |
| 2026-04-24 10:38 | 29.74248 | 119.63335 | 12854 ft | 380 kts | 46° |
| 2026-04-24 10:38 | 29.75937 | 119.65539 | 12243 ft | 373 kts | 49° |
| 2026-04-24 10:39 | 29.77559 | 119.67854 | 11621 ft | 366 kts | 51° |
| 2026-04-24 10:39 | 29.79065 | 119.70199 | 11042 ft | 358 kts | 53° |
| 2026-04-24 10:39 | 29.80481 | 119.72504 | 10621 ft | 346 kts | 54° |
| 2026-04-24 10:39 | 29.81821 | 119.74710 | 10479 ft | 327 kts | 53° |
| 2026-04-24 10:40 | 29.83106 | 119.76820 | 10360 ft | 309 kts | 53° |
| 2026-04-24 10:40 | 29.84305 | 119.78773 | 10230 ft | 294 kts | 53° |
| 2026-04-24 10:40 | 29.85473 | 119.80656 | 10030 ft | 283 kts | 53° |
| 2026-04-24 10:40 | 29.86610 | 119.82478 | 9669 ft | 279 kts | 53° |
| 2026-04-24 10:41 | 29.87749 | 119.84301 | 9303 ft | 276 kts | 53° |
| 2026-04-24 10:41 | 29.88860 | 119.86080 | 8959 ft | 272 kts | 53° |
| 2026-04-24 10:41 | 29.89930 | 119.87839 | 8625 ft | 268 kts | 56° |
| 2026-04-24 10:41 | 29.90861 | 119.89693 | 8289 ft | 265 kts | 61° |
| 2026-04-24 10:42 | 29.91685 | 119.91564 | 7964 ft | 261 kts | 62° |
| 2026-04-24 10:42 | 29.92496 | 119.93443 | 7637 ft | 257 kts | 62° |
| 2026-04-24 10:42 | 29.93301 | 119.95276 | 7320 ft | 254 kts | 62° |
| 2026-04-24 10:42 | 29.94094 | 119.97053 | 7007 ft | 249 kts | 62° |
| 2026-04-24 10:43 | 29.94882 | 119.98807 | 6699 ft | 243 kts | 61° |
| 2026-04-24 10:43 | 29.95651 | 120.00510 | 6399 ft | 234 kts | 62° |
| 2026-04-24 10:43 | 29.96386 | 120.02139 | 6102 ft | 226 kts | 61° |
| 2026-04-24 10:43 | 29.97108 | 120.03739 | 5826 ft | 219 kts | 62° |
| 2026-04-24 10:44 | 29.97800 | 120.05279 | 5552 ft | 213 kts | 62° |
| 2026-04-24 10:44 | 29.98478 | 120.06783 | 5287 ft | 207 kts | 62° |
| 2026-04-24 10:44 | 29.99127 | 120.08226 | 5050 ft | 201 kts | 62° |
| 2026-04-24 10:44 | 29.99754 | 120.09627 | 4934 ft | 189 kts | 61° |
| 2026-04-24 10:45 | 30.00343 | 120.10929 | 4879 ft | 176 kts | 62° |
| 2026-04-24 10:45 | 30.00883 | 120.12136 | 4827 ft | 163 kts | 62° |
| 2026-04-24 10:45 | 30.01392 | 120.13263 | 4777 ft | 152 kts | 61° |
| 2026-04-24 10:45 | 30.01975 | 120.14252 | 4700 ft | 150 kts | 41° |
| 2026-04-24 10:46 | 30.02930 | 120.14743 | 4561 ft | 152 kts | 12° |
| 2026-04-24 10:46 | 30.03976 | 120.14994 | 4382 ft | 152 kts | 15° |
| 2026-04-24 10:46 | 30.04999 | 120.15320 | 4220 ft | 151 kts | 17° |
| 2026-04-24 10:46 | 30.06009 | 120.15642 | 4150 ft | 148 kts | 17° |
| 2026-04-24 10:47 | 30.07019 | 120.15951 | 4113 ft | 151 kts | 16° |
| 2026-04-24 10:47 | 30.08029 | 120.16262 | 4072 ft | 150 kts | 17° |
| 2026-04-24 10:47 | 30.09042 | 120.16583 | 4027 ft | 151 kts | 15° |
| 2026-04-24 10:47 | 30.10057 | 120.16895 | 3986 ft | 150 kts | 15° |
| 2026-04-24 10:48 | 30.11068 | 120.17206 | 3969 ft | 150 kts | 17° |
| 2026-04-24 10:48 | 30.12080 | 120.17520 | 3974 ft | 149 kts | 16° |
| 2026-04-24 10:48 | 30.13018 | 120.17817 | 3973 ft | 151 kts | 19° |
| 2026-04-24 10:48 | 30.13614 | 120.18138 | 3955 ft | 148 kts | 38° |
| 2026-04-24 10:49 | 30.14321 | 120.19530 | 3715 ft | 149 kts | 70° |
| 2026-04-24 10:49 | 30.14771 | 120.20596 | 3542 ft | 148 kts | 59° |
| 2026-04-24 10:49 | 30.15281 | 120.21614 | 3365 ft | 147 kts | 62° |
| 2026-04-24 10:49 | 30.15958 | 120.22501 | 3177 ft | 148 kts | 28° |
| 2026-04-24 10:50 | 30.16901 | 120.22945 | 3006 ft | 147 kts | 33° |
| 2026-04-24 10:50 | 30.17496 | 120.23826 | 2969 ft | 142 kts | 73° |
| 2026-04-24 10:50 | 30.17678 | 120.24951 | 2995 ft | 144 kts | 81° |
| 2026-04-24 10:50 | 30.17822 | 120.26107 | 2850 ft | 144 kts | 81° |
| 2026-04-24 10:51 | 30.17934 | 120.27258 | 2786 ft | 141 kts | 83° |
| 2026-04-24 10:51 | 30.18123 | 120.28318 | 3188 ft | 142 kts | 71° |
| 2026-04-24 10:51 | 30.18466 | 120.29479 | 3070 ft | 159 kts | 71° |
| 2026-04-24 10:51 | 30.18892 | 120.30640 | 2886 ft | 152 kts | 55° |
| 2026-04-24 10:52 | 30.19585 | 120.31530 | 2872 ft | 144 kts | 46° |
| 2026-04-24 10:52 | 30.20376 | 120.32200 | 3003 ft | 141 kts | 19° |
| 2026-04-24 10:52 | 30.21343 | 120.32026 | 3332 ft | 149 kts | 329° |
| 2026-04-24 10:52 | 30.21930 | 120.31004 | 3548 ft | 160 kts | 290° |
| 2026-04-24 10:53 | 30.22191 | 120.29748 | 3460 ft | 162 kts | 284° |
| 2026-04-24 10:53 | 30.22320 | 120.28527 | 3404 ft | 153 kts | 259° |
| 2026-04-24 10:53 | 30.21662 | 120.27560 | 3592 ft | 157 kts | 205° |
| 2026-04-24 10:53 | 30.20575 | 120.27475 | 3346 ft | 161 kts | 161° |
| 2026-04-24 10:54 | 30.19625 | 120.28086 | 2950 ft | 154 kts | 140° |
| 2026-04-24 10:54 | 30.18963 | 120.29012 | 2687 ft | 146 kts | 111° |
| 2026-04-24 10:54 | 30.18806 | 120.30135 | 2286 ft | 144 kts | 78° |
| 2026-04-24 10:54 | 30.19282 | 120.31139 | 1947 ft | 141 kts | 54° |
| 2026-04-24 10:55 | 30.19794 | 120.32091 | 1838 ft | 133 kts | 62° |
| 2026-04-24 10:55 | 30.20266 | 120.33008 | 1821 ft | 135 kts | 58° |
| 2026-04-24 10:55 | 30.20745 | 120.33965 | 1802 ft | 138 kts | 62° |
| 2026-04-24 10:55 | 30.21188 | 120.34970 | 1600 ft | 138 kts | 64° |
| 2026-04-24 10:56 | 30.21613 | 120.35942 | 1366 ft | 135 kts | 62° |
| 2026-04-24 10:56 | 30.22061 | 120.36916 | 916 ft | 142 kts | 62° |
| 2026-04-24 10:56 | 30.22511 | 120.37927 | 604 ft | 138 kts | 60° |
| 2026-04-24 10:56 | 30.22954 | 120.38917 | 432 ft | 135 kts | 63° |
| 2026-04-24 10:57 | 30.23386 | 120.39860 | 274 ft | 133 kts | 60° |
| 2026-04-24 10:57 | 30.23816 | 120.40826 | 92 ft | 132 kts | 62° |
| 2026-04-24 10:57 | 30.24206 | 120.41710 | 29 ft | 104 kts | 59° |
| 2026-04-24 10:57 | 30.24428 | 120.42201 | 28 ft | 36 kts | 63° |
| 2026-04-24 10:58 | 30.24519 | 120.42454 | 28 ft | 33 kts | 74° |